createdAt,value
2022-11-22T00:00:28.134Z,99143.52
2022-11-22T00:03:15.747Z,99146.77
2022-11-22T00:05:43.202Z,99147.45
2022-11-22T00:08:10.664Z,99148.14
2022-11-22T00:10:38.318Z,99147.27
2022-11-22T00:13:06.081Z,99146.95
2022-11-22T00:15:33.946Z,99145.24
2022-11-22T00:18:02.019Z,99140.11
2022-11-22T00:20:29.890Z,99145.72
2022-11-22T00:22:57.654Z,99146.21
2022-11-22T00:25:25.375Z,99149.44
2022-11-22T00:27:52.576Z,99155.59
2022-11-22T00:30:20.355Z,99146.70
2022-11-22T00:32:47.790Z,99145.49
2022-11-22T00:35:15.494Z,99144.46
2022-11-22T00:37:42.732Z,99149.43
2022-11-22T00:40:11.964Z,99151.99
2022-11-22T00:42:39.165Z,99152.86
2022-11-22T00:45:07.319Z,99149.11
2022-11-22T00:47:35.296Z,99148.95
2022-11-22T00:50:02.452Z,99149.14
2022-11-22T00:52:29.598Z,99150.35
2022-11-22T00:54:57.079Z,99146.24
2022-11-22T00:57:24.410Z,99147.96
2022-11-22T00:59:52.021Z,99144.88
2022-11-22T01:02:19.779Z,99146.77
2022-11-22T01:04:47.500Z,99146.42
2022-11-22T01:07:15.205Z,99150.52
2022-11-22T01:09:42.557Z,99146.41
2022-11-22T01:12:10.248Z,99144.52
2022-11-22T01:14:37.637Z,99146.91
2022-11-22T01:17:04.995Z,99147.44
2022-11-22T01:19:32.647Z,99153.77
2022-11-22T01:22:00.017Z,99158.56
2022-11-22T01:24:27.890Z,99157.02
2022-11-22T01:26:55.142Z,99154.98
2022-11-22T01:29:22.234Z,99149.67
2022-11-22T01:31:49.656Z,99149.18
2022-11-22T01:34:17.197Z,99143.17
2022-11-22T01:36:44.420Z,99140.60
2022-11-22T01:39:11.939Z,99139.21
2022-11-22T01:41:39.058Z,99138.84
2022-11-22T01:44:20.826Z,99140.88
2022-11-22T01:46:49.940Z,99142.91
2022-11-22T01:49:25.038Z,99141.52
2022-11-22T01:51:56.735Z,99143.73
2022-11-22T01:54:27.265Z,99144.93
2022-11-22T01:56:59.337Z,99146.29
2022-11-22T01:59:30.278Z,99149.13
2022-11-22T02:01:58.341Z,99154.89
2022-11-22T02:04:29.628Z,99161.87
2022-11-22T02:07:03.069Z,99168.02
2022-11-22T02:09:31.431Z,99170.05
2022-11-22T02:12:03.541Z,99173.13
2022-11-22T02:14:32.949Z,99175.66
2022-11-22T02:17:00.289Z,99177.17
2022-11-22T02:19:40.860Z,99176.65
2022-11-22T02:22:19.881Z,99178.87
2022-11-22T02:24:54.857Z,99179.59
2022-11-22T02:27:22.613Z,99183.21
2022-11-22T02:29:50.010Z,99184.42
2022-11-22T02:32:17.390Z,99182.89
2022-11-22T02:34:51.403Z,99181.52
2022-11-22T02:37:24.083Z,99186.13
2022-11-22T02:39:57.534Z,99192.97
2022-11-22T02:42:26.064Z,99192.81
2022-11-22T02:44:53.679Z,99198.98
2022-11-22T02:47:21.080Z,99196.43
2022-11-22T02:49:48.539Z,99195.27
2022-11-22T02:52:19.525Z,99193.91
2022-11-22T02:54:47.241Z,99191.55
2022-11-22T02:57:15.313Z,99188.31
2022-11-22T02:59:42.770Z,99191.58
2022-11-22T03:02:10.024Z,99189.00
2022-11-22T03:04:37.623Z,99185.23
2022-11-22T03:07:05.304Z,99183.02
2022-11-22T03:09:33.678Z,99179.77
2022-11-22T03:12:01.695Z,99180.96
2022-11-22T03:14:29.283Z,99182.15
2022-11-22T03:16:56.610Z,99187.63
2022-11-22T03:19:24.074Z,99185.93
2022-11-22T03:21:51.221Z,99183.20
2022-11-22T03:24:20.252Z,99183.57
2022-11-22T03:26:51.768Z,99182.72
2022-11-22T03:29:19.552Z,99177.44
2022-11-22T03:31:47.195Z,99177.09
2022-11-22T03:34:16.403Z,99176.59
2022-11-22T03:36:43.644Z,99178.62
2022-11-22T03:39:11.240Z,99177.57
2022-11-22T03:41:38.680Z,99179.91
2022-11-22T03:44:07.184Z,99180.73
2022-11-22T03:46:34.308Z,99176.27
2022-11-22T03:49:01.895Z,99176.81
2022-11-22T03:51:29.633Z,99174.47
2022-11-22T03:53:56.918Z,99178.94
2022-11-22T03:56:24.394Z,99179.42
2022-11-22T03:58:51.988Z,99176.52
2022-11-22T04:01:19.317Z,99177.17
2022-11-22T04:03:47.012Z,99177.98
2022-11-22T04:06:14.259Z,99180.17
2022-11-22T04:08:41.540Z,99187.17
2022-11-22T04:11:08.969Z,99189.41
2022-11-22T04:13:54.247Z,99182.74
2022-11-22T04:16:22.008Z,99178.62
2022-11-22T04:18:49.772Z,99172.29
2022-11-22T04:21:35.672Z,99173.49
2022-11-22T04:24:20.810Z,99169.55
2022-11-22T04:26:49.430Z,99165.39
2022-11-22T04:29:16.946Z,99162.23
2022-11-22T04:32:13.416Z,99160.99
2022-11-22T04:34:41.349Z,99162.38
2022-11-22T04:37:08.850Z,99160.02
2022-11-22T04:39:36.505Z,99158.02
2022-11-22T04:42:20.554Z,99154.27
2022-11-22T04:44:48.526Z,99157.23
2022-11-22T04:47:34.208Z,99153.13
2022-11-22T04:50:01.694Z,99148.45
2022-11-22T04:52:46.234Z,99149.81
2022-11-22T04:55:13.609Z,99155.11
2022-11-22T04:57:40.931Z,99158.55
2022-11-22T05:00:10.256Z,99159.77
2022-11-22T05:02:37.586Z,99163.54
2022-11-22T05:05:05.497Z,99168.69
2022-11-22T05:07:34.494Z,99168.53
2022-11-22T05:10:01.905Z,99171.51
2022-11-22T05:12:29.468Z,99177.88
2022-11-22T05:14:57.026Z,99177.89
2022-11-22T05:17:24.788Z,99178.41
2022-11-22T05:19:51.941Z,99180.65
2022-11-22T05:22:39.675Z,99181.88
2022-11-22T05:25:07.831Z,99183.08
2022-11-22T05:27:34.997Z,99184.27
2022-11-22T05:30:02.658Z,99188.03
2022-11-22T05:32:32.726Z,99185.98
2022-11-22T05:35:00.034Z,99183.56
2022-11-22T05:37:27.789Z,99188.84
2022-11-22T05:39:55.044Z,99197.36
2022-11-22T05:42:22.814Z,99199.39
2022-11-22T05:44:50.474Z,99208.08
2022-11-22T05:47:17.626Z,99214.05
2022-11-22T05:49:46.259Z,99212.84
2022-11-22T05:52:13.872Z,99217.98
2022-11-22T05:54:41.330Z,99223.45
2022-11-22T05:57:08.846Z,99232.52
2022-11-22T05:59:41.092Z,99231.86
2022-11-22T06:02:11.544Z,99230.69
2022-11-22T06:04:39.466Z,99229.83
2022-11-22T06:07:10.264Z,99231.40
2022-11-22T06:09:38.055Z,99235.69
2022-11-22T06:12:05.587Z,99235.52
2022-11-22T06:14:32.840Z,99236.20
2022-11-22T06:17:00.161Z,99236.17
2022-11-22T06:19:27.734Z,99236.83
2022-11-22T06:21:55.141Z,99242.63
2022-11-22T06:24:22.498Z,99246.55
2022-11-22T06:26:50.071Z,99243.61
2022-11-22T06:29:17.449Z,99247.05
2022-11-22T06:31:44.560Z,99247.41
2022-11-22T06:34:14.629Z,99240.39
2022-11-22T06:36:41.949Z,99240.73
2022-11-22T06:39:09.183Z,99246.37
2022-11-22T06:41:38.724Z,99243.46
2022-11-22T06:44:09.892Z,99242.09
2022-11-22T06:46:37.917Z,99244.66
2022-11-22T06:49:05.793Z,99242.41
2022-11-22T06:51:34.047Z,99245.46
2022-11-22T06:54:01.876Z,99251.24
2022-11-22T06:56:31.139Z,99247.45
2022-11-22T06:58:59.540Z,99252.21
2022-11-22T07:01:29.387Z,99254.72
2022-11-22T07:03:59.359Z,99258.98
2022-11-22T07:06:27.861Z,99257.17
2022-11-22T07:08:55.467Z,99263.29
2022-11-22T07:11:25.204Z,99269.27
2022-11-22T07:13:53.553Z,99271.67
2022-11-22T07:16:22.599Z,99270.66
2022-11-22T07:18:50.960Z,99271.55
2022-11-22T07:21:20.036Z,99269.65
2022-11-22T07:23:49.117Z,99271.54
2022-11-22T07:26:18.157Z,99267.39
2022-11-22T07:28:46.208Z,99266.86
2022-11-22T07:31:15.046Z,99264.67
2022-11-22T07:33:44.262Z,99265.03
2022-11-22T07:36:15.255Z,99263.00
2022-11-22T07:38:42.656Z,99265.77
2022-11-22T07:41:11.519Z,99268.89
2022-11-22T07:43:39.223Z,99270.30
2022-11-22T07:46:08.896Z,99269.67
2022-11-22T07:48:36.473Z,99269.16
2022-11-22T07:51:08.527Z,99269.67
2022-11-22T07:53:36.168Z,99272.75
2022-11-22T07:56:06.153Z,99275.84
2022-11-22T07:58:33.776Z,99279.02
2022-11-22T08:01:05.177Z,99278.78
2022-11-22T08:03:32.587Z,99285.25
2022-11-22T08:06:04.026Z,99294.94
2022-11-22T08:08:31.649Z,99296.92
2022-11-22T08:10:59.455Z,99299.98
2022-11-22T08:13:27.048Z,99296.39
2022-11-22T08:15:56.709Z,99290.90
2022-11-22T08:18:25.956Z,99292.96
2022-11-22T08:21:02.726Z,99293.99
2022-11-22T08:23:30.213Z,99295.04
2022-11-22T08:25:58.574Z,99297.08
2022-11-22T08:28:25.918Z,99291.41
2022-11-22T08:30:53.559Z,99291.56
2022-11-22T08:33:21.127Z,99295.98
2022-11-22T08:35:52.489Z,99297.52
2022-11-22T08:38:20.050Z,99296.32
2022-11-22T08:40:47.508Z,99302.67
2022-11-22T08:43:14.654Z,99303.73
2022-11-22T08:45:42.962Z,99299.80
2022-11-22T08:48:10.943Z,99302.89
2022-11-22T08:50:38.094Z,99299.80
2022-11-22T08:53:05.511Z,99298.78
2022-11-22T08:55:33.288Z,99296.52
2022-11-22T08:58:04.803Z,99297.66
2022-11-22T09:00:33.692Z,99301.00
2022-11-22T09:03:01.485Z,99298.23
2022-11-22T09:05:29.466Z,99302.45
2022-11-22T09:10:45.464Z,99304.47
2022-11-22T09:13:12.851Z,99305.48
2022-11-22T09:15:40.896Z,99303.92
2022-11-22T09:18:08.193Z,99307.16
2022-11-22T09:20:36.339Z,99306.63
2022-11-22T09:23:05.109Z,99311.51
2022-11-22T09:25:32.769Z,99309.35
2022-11-22T09:28:03.542Z,99314.27
2022-11-22T09:30:31.784Z,99314.08
2022-11-22T09:32:59.439Z,99309.80
2022-11-22T09:35:27.142Z,99307.88
2022-11-22T09:37:54.459Z,99306.11
2022-11-22T09:40:21.918Z,99308.28
2022-11-22T09:43:05.654Z,99309.76
2022-11-22T09:45:43.455Z,99305.38
2022-11-22T09:48:23.226Z,99306.33
2022-11-22T09:50:59.871Z,99309.98
2022-11-22T09:53:27.635Z,99314.20
2022-11-22T09:55:58.634Z,99310.95
2022-11-22T09:58:33.619Z,99304.09
2022-11-22T10:01:10.074Z,99296.89
2022-11-22T10:03:47.225Z,99301.16
2022-11-22T10:06:21.176Z,99304.43
2022-11-22T10:08:57.796Z,99311.15
2022-11-22T10:11:36.880Z,99304.48
2022-11-22T10:14:09.566Z,99301.20
2022-11-22T10:16:44.180Z,99302.03
2022-11-22T10:19:16.897Z,99299.29
2022-11-22T10:21:47.213Z,99298.38
2022-11-22T10:24:20.194Z,99307.73
2022-11-22T10:26:48.083Z,99308.06
2022-11-22T10:29:29.452Z,99301.65
2022-11-22T10:32:05.248Z,99293.66
2022-11-22T10:34:50.894Z,99294.80
2022-11-22T10:37:26.303Z,99301.71
2022-11-22T10:40:04.151Z,99308.05
2022-11-22T10:42:58.732Z,99311.30
2022-11-22T10:45:32.810Z,99312.33
2022-11-22T10:48:11.327Z,99320.05
2022-11-22T10:50:50.606Z,99329.34
2022-11-22T10:53:26.073Z,99330.88
2022-11-22T10:56:00.870Z,99332.17
2022-11-22T10:58:39.562Z,99342.90
2022-11-22T11:01:17.721Z,99340.95
2022-11-22T11:03:49.633Z,99339.34
2022-11-22T11:06:37.522Z,99328.98
2022-11-22T11:10:08.904Z,99322.02
2022-11-22T11:12:11.084Z,99314.48
2022-11-22T11:14:42.436Z,99307.90
2022-11-22T11:17:15.421Z,99305.13
2022-11-22T11:19:46.377Z,99304.97
2022-11-22T11:22:44.266Z,99310.30
2022-11-22T11:25:30.252Z,99319.91
2022-11-22T11:28:01.139Z,99309.48
2022-11-22T11:30:28.242Z,99313.15
2022-11-22T11:32:57.349Z,99309.14
2022-11-22T11:35:28.122Z,99307.34
2022-11-22T11:37:56.175Z,99312.53
2022-11-22T11:40:34.164Z,99310.00
2022-11-22T11:43:20.861Z,99309.67
2022-11-22T11:45:49.429Z,99310.02
2022-11-22T11:48:37.708Z,99303.34
2022-11-22T11:51:18.665Z,99302.00
2022-11-22T11:53:55.062Z,99294.67
2022-11-22T11:56:28.759Z,99290.44
2022-11-22T11:58:57.279Z,99290.82
2022-11-22T12:01:26.946Z,99286.40
2022-11-22T12:04:02.861Z,99289.33
2022-11-22T12:06:34.246Z,99292.90
2022-11-22T12:09:08.892Z,99291.94
2022-11-22T12:11:44.265Z,99292.38
2022-11-22T12:14:20.595Z,99294.15
2022-11-22T12:16:53.428Z,99294.37
